createdAt,value
2022-11-28T00:01:17.068Z,100071.00
2022-11-28T00:02:50.466Z,100073.63
2022-11-28T00:04:24.342Z,100074.47
2022-11-28T00:05:56.673Z,100073.63
2022-11-28T00:07:30.432Z,100077.09
2022-11-28T00:09:05.408Z,100071.84
2022-11-28T00:10:40.650Z,100072.72
2022-11-28T00:12:14.008Z,100077.97
2022-11-28T00:13:47.865Z,100066.63
2022-11-28T00:15:21.259Z,100073.63
2022-11-28T00:16:54.429Z,100072.78
2022-11-28T00:18:27.879Z,100075.38
2022-11-28T00:20:01.307Z,100074.50
2022-11-28T00:21:35.188Z,100078.88
2022-11-28T00:23:08.299Z,100067.53
2022-11-28T00:24:43.372Z,100077.13
2022-11-28T00:26:20.621Z,100036.97
2022-11-28T00:27:53.730Z,100075.41
2022-11-28T00:29:27.036Z,100073.66
2022-11-28T00:31:00.277Z,100069.28
2022-11-28T00:32:33.523Z,100061.41
2022-11-28T00:34:06.852Z,100056.22
2022-11-28T00:35:40.158Z,100070.19
2022-11-28T00:37:13.583Z,100062.34
2022-11-28T00:38:47.209Z,100061.44
2022-11-28T00:40:21.731Z,100070.16
2022-11-28T00:41:55.076Z,100061.44
2022-11-28T00:43:28.740Z,100064.91
2022-11-28T00:45:01.943Z,100044.00
2022-11-28T00:46:35.307Z,100050.06
2022-11-28T00:48:08.519Z,100053.53
2022-11-28T00:49:42.365Z,100050.06
2022-11-28T00:51:18.023Z,100048.28
2022-11-28T00:52:51.530Z,100044.78
2022-11-28T00:54:24.718Z,100040.44
2022-11-28T00:55:58.419Z,100049.13
2022-11-28T00:57:31.853Z,100047.41
2022-11-28T00:59:06.046Z,100049.13
2022-11-28T01:00:39.542Z,100049.13
2022-11-28T01:02:12.924Z,100049.13
2022-11-28T01:03:46.144Z,100052.66
2022-11-28T01:05:19.530Z,100045.63
2022-11-28T01:06:52.804Z,100047.41
2022-11-28T01:08:25.106Z,100043.91
2022-11-28T01:09:58.523Z,100043.91
2022-11-28T01:11:33.418Z,100042.16
2022-11-28T01:13:06.586Z,100040.38
2022-11-28T01:14:40.049Z,100042.09
2022-11-28T01:16:13.314Z,100039.47
2022-11-28T01:17:46.503Z,100047.34
2022-11-28T01:19:19.978Z,100043.84
2022-11-28T01:20:52.330Z,100048.19
2022-11-28T01:22:26.036Z,100048.22
2022-11-28T01:23:59.539Z,100043.00
2022-11-28T01:25:32.085Z,100043.00
2022-11-28T01:27:06.885Z,100046.50
2022-11-28T01:28:40.320Z,100039.50
2022-11-28T01:30:13.662Z,100031.66
2022-11-28T01:31:47.037Z,100038.66
2022-11-28T01:33:20.631Z,100032.56
2022-11-28T01:34:53.986Z,100038.69
2022-11-28T01:36:27.968Z,100029.94
2022-11-28T01:38:01.341Z,100029.94
2022-11-28T01:39:34.695Z,100022.94
2022-11-28T01:41:08.602Z,100017.69
2022-11-28T01:42:43.346Z,100029.94
2022-11-28T01:44:58.799Z,100026.44
2022-11-28T01:46:33.337Z,100013.38
2022-11-28T01:48:09.499Z,100022.94
2022-11-28T01:49:43.450Z,100022.97
2022-11-28T01:51:17.016Z,100024.72
2022-11-28T01:52:54.657Z,100017.72
2022-11-28T01:54:29.867Z,100026.47
2022-11-28T01:56:07.858Z,100033.47
2022-11-28T01:57:43.623Z,100035.25
2022-11-28T01:59:17.420Z,100036.97
2022-11-28T02:00:51.019Z,100026.50
2022-11-28T02:02:30.884Z,100020.41
2022-11-28T02:04:05.488Z,100022.13
2022-11-28T02:05:39.891Z,100016.91
2022-11-28T02:07:13.313Z,100024.75
2022-11-28T02:08:46.531Z,100012.53
2022-11-28T02:10:24.736Z,100013.38
2022-11-28T02:12:18.454Z,100021.25
2022-11-28T02:14:02.263Z,100012.53
2022-11-28T02:15:50.935Z,100018.66
2022-11-28T02:17:34.430Z,100010.81
2022-11-28T02:19:47.061Z,100020.41
2022-11-28T02:21:37.372Z,99995.09
2022-11-28T02:23:16.864Z,100013.41
2022-11-28T02:25:01.459Z,100010.75
2022-11-28T02:26:56.636Z,100007.28
2022-11-28T02:29:02.899Z,100017.78
2022-11-28T02:30:46.069Z,100003.78
2022-11-28T02:32:31.746Z,100009.03
2022-11-28T02:34:09.569Z,100005.53
2022-11-28T02:35:55.997Z,100003.78
2022-11-28T02:37:37.719Z,99999.41
2022-11-28T02:39:15.709Z,99995.03
2022-11-28T02:40:59.138Z,100007.25
2022-11-28T02:42:39.607Z,100013.38
2022-11-28T02:44:17.963Z,100006.41
2022-11-28T02:45:57.175Z,100010.78
2022-11-28T02:47:33.332Z,100012.53
2022-11-28T02:49:10.077Z,100007.28
2022-11-28T02:50:47.986Z,100002.00
2022-11-28T02:52:26.881Z,100006.41
2022-11-28T02:54:03.239Z,100010.75
2022-11-28T02:55:39.400Z,100006.41
2022-11-28T02:57:12.853Z,100006.41
2022-11-28T02:58:46.053Z,100003.78
2022-11-28T03:00:27.945Z,100009.03
2022-11-28T03:02:02.923Z,100002.06
2022-11-28T03:03:53.385Z,100006.41
2022-11-28T03:05:34.634Z,100011.66
2022-11-28T03:07:20.281Z,100009.03
2022-11-28T03:09:24.096Z,100001.19
2022-11-28T03:11:04.799Z,99995.09
2022-11-28T03:12:51.301Z,100009.09
2022-11-28T03:14:42.450Z,100009.09
2022-11-28T03:16:23.951Z,99994.22
2022-11-28T03:18:09.169Z,100003.84
2022-11-28T03:19:49.392Z,100007.31
2022-11-28T03:21:27.902Z,100004.69
2022-11-28T03:23:13.614Z,99999.47
2022-11-28T03:24:50.584Z,100009.06
2022-11-28T03:26:31.167Z,100004.69
2022-11-28T03:28:11.741Z,100002.94
2022-11-28T03:29:50.284Z,100002.09
2022-11-28T03:31:30.487Z,100001.22
2022-11-28T03:33:05.077Z,99998.59
2022-11-28T03:34:44.733Z,100000.34
2022-11-28T03:36:23.431Z,99997.72
2022-11-28T03:38:02.238Z,100003.84
2022-11-28T03:39:40.217Z,100005.56
2022-11-28T03:41:17.859Z,100009.09
2022-11-28T03:43:00.331Z,100003.84
2022-11-28T03:44:40.657Z,99996.91
2022-11-28T03:46:17.532Z,100000.38
2022-11-28T03:47:58.752Z,99998.63
2022-11-28T03:49:36.697Z,99973.38
2022-11-28T03:51:13.508Z,100010.00
2022-11-28T03:52:52.578Z,100003.00
2022-11-28T03:54:34.737Z,100000.38
2022-11-28T03:56:13.956Z,100002.09
2022-11-28T03:57:53.227Z,100008.22
2022-11-28T03:59:32.598Z,100007.38
2022-11-28T04:01:13.376Z,100010.88
2022-11-28T04:02:54.075Z,100016.97
2022-11-28T04:04:33.412Z,100022.22
2022-11-28T04:06:16.326Z,100019.59
2022-11-28T04:07:58.425Z,100021.31
2022-11-28T04:09:42.804Z,100020.44
2022-11-28T04:11:18.327Z,100026.56
2022-11-28T04:12:58.402Z,100018.72
2022-11-28T04:14:34.823Z,100028.31
2022-11-28T04:16:12.682Z,100030.03
2022-11-28T04:17:53.413Z,100024.81
2022-11-28T04:19:31.980Z,100037.03
2022-11-28T04:21:13.410Z,100037.00
2022-11-28T04:22:52.558Z,100035.28
2022-11-28T04:24:30.178Z,100033.50
2022-11-28T04:26:10.323Z,100037.00
2022-11-28T04:27:48.318Z,100044.00
2022-11-28T04:29:25.195Z,100045.72
2022-11-28T04:31:02.274Z,100053.59
2022-11-28T04:32:42.674Z,100045.72
2022-11-28T04:34:20.101Z,100042.22
2022-11-28T04:35:54.995Z,100052.66
2022-11-28T04:37:30.120Z,100045.69
2022-11-28T04:39:04.515Z,100047.41
2022-11-28T04:40:46.154Z,100042.16
2022-11-28T04:42:22.693Z,100035.19
2022-11-28T04:44:01.811Z,100040.44
2022-11-28T04:45:39.142Z,100058.78
2022-11-28T04:47:13.086Z,100056.16
2022-11-28T04:48:46.857Z,100039.56
2022-11-28T04:50:20.501Z,100048.28
2022-11-28T04:51:59.646Z,100052.66
2022-11-28T04:53:36.954Z,100060.53
2022-11-28T04:55:18.526Z,100067.53
2022-11-28T04:56:57.986Z,100055.31
2022-11-28T04:58:35.694Z,100057.06
2022-11-28T05:00:10.915Z,100057.91
2022-11-28T05:01:47.342Z,100063.13
2022-11-28T05:03:21.030Z,100053.53
2022-11-28T05:04:55.850Z,100057.94
2022-11-28T05:06:31.607Z,100057.09
2022-11-28T05:08:05.216Z,100056.19
2022-11-28T05:09:38.724Z,100056.22
2022-11-28T05:11:11.995Z,100061.44
2022-11-28T05:12:47.275Z,100062.28
2022-11-28T05:14:20.594Z,100061.41
2022-11-28T05:15:53.787Z,100068.41
2022-11-28T05:17:27.019Z,100062.28
2022-11-28T05:19:00.908Z,100071.00
2022-11-28T05:20:34.367Z,100063.13
2022-11-28T05:22:07.646Z,100062.25
2022-11-28T05:23:41.790Z,100062.25
2022-11-28T05:25:15.081Z,100058.75
2022-11-28T05:26:48.546Z,100059.63
2022-11-28T05:28:23.166Z,100061.34
2022-11-28T05:29:56.438Z,100052.66
2022-11-28T05:31:30.146Z,100054.38
2022-11-28T05:33:03.916Z,100044.84
2022-11-28T05:34:37.779Z,100041.31
2022-11-28T05:36:13.470Z,100040.44
2022-11-28T05:37:47.047Z,100059.66
2022-11-28T05:39:20.630Z,100066.66
2022-11-28T05:40:53.927Z,100073.63
2022-11-28T05:42:28.537Z,100069.28
2022-11-28T05:44:03.494Z,100071.00
2022-11-28T05:45:39.561Z,100077.13
2022-11-28T05:47:12.751Z,100067.53
2022-11-28T05:48:45.970Z,100072.75
2022-11-28T05:50:19.874Z,100072.78
2022-11-28T05:51:53.528Z,100071.00
2022-11-28T05:53:26.659Z,100075.38
2022-11-28T05:55:01.720Z,100068.41
2022-11-28T05:56:40.939Z,100070.16
2022-11-28T05:58:15.746Z,100067.53
2022-11-28T05:59:50.333Z,100071.03
2022-11-28T06:01:25.910Z,100070.16
2022-11-28T06:03:01.503Z,100064.06
2022-11-28T06:04:35.475Z,100070.16
2022-11-28T06:06:13.980Z,100070.13
2022-11-28T06:07:47.145Z,100062.25
2022-11-28T06:09:25.489Z,100068.34
2022-11-28T06:11:00.928Z,100050.91
2022-11-28T06:12:34.248Z,100070.06
2022-11-28T06:14:07.419Z,100064.81
2022-11-28T06:15:45.208Z,100063.06
2022-11-28T06:17:18.655Z,100063.91
2022-11-28T06:18:54.376Z,100075.28
2022-11-28T06:20:27.639Z,100063.94
2022-11-28T06:22:01.041Z,100073.50
2022-11-28T06:23:34.922Z,100078.75
2022-11-28T06:25:08.409Z,100063.06
2022-11-28T06:26:41.599Z,100071.78
2022-11-28T06:28:14.992Z,100075.25
2022-11-28T06:29:48.257Z,100071.75
2022-11-28T06:31:25.309Z,100083.97
2022-11-28T06:32:58.631Z,100080.47
2022-11-28T06:34:32.571Z,100074.31
2022-11-28T06:36:07.693Z,100073.44
2022-11-28T06:37:40.795Z,100076.97
2022-11-28T06:39:15.783Z,100076.13
2022-11-28T06:40:49.037Z,100073.50
2022-11-28T06:42:22.594Z,100069.16
2022-11-28T06:43:56.693Z,100070.03
2022-11-28T06:45:29.964Z,100068.28
2022-11-28T06:47:04.649Z,100065.66
2022-11-28T06:48:38.834Z,100068.25
2022-11-28T06:50:12.538Z,100066.53
2022-11-28T06:51:46.490Z,100064.75
2022-11-28T06:53:20.598Z,100056.03
2022-11-28T06:54:53.887Z,100061.28
2022-11-28T06:56:27.240Z,100066.53
2022-11-28T06:58:00.443Z,100068.25
2022-11-28T06:59:33.888Z,100066.53
2022-11-28T07:01:08.943Z,100063.91
2022-11-28T07:02:43.620Z,100063.00
2022-11-28T07:04:17.068Z,100036.84
2022-11-28T07:05:50.375Z,100062.09
2022-11-28T07:07:23.735Z,100057.72
2022-11-28T07:08:58.729Z,100054.22
2022-11-28T07:10:32.002Z,100062.06
2022-11-28T07:12:05.666Z,100064.69
2022-11-28T07:13:39.390Z,100055.06
2022-11-28T07:15:12.819Z,100062.94
2022-11-28T07:16:46.119Z,100046.34
2022-11-28T07:18:20.888Z,100057.63
2022-11-28T07:19:55.256Z,100061.09
2022-11-28T07:21:30.000Z,100055.84
2022-11-28T07:23:03.212Z,100059.34
2022-11-28T07:24:36.664Z,100065.44
2022-11-28T07:26:11.141Z,100051.44
2022-11-28T07:27:44.675Z,100040.97
2022-11-28T07:29:20.213Z,100052.22
2022-11-28T07:31:00.693Z,100053.91
2022-11-28T07:32:34.091Z,100062.69
2022-11-28T07:34:10.106Z,100052.19
2022-11-28T07:35:43.294Z,100048.66
2022-11-28T07:37:16.824Z,100055.69
2022-11-28T07:38:51.596Z,100053.91
2022-11-28T07:40:24.963Z,100055.63
2022-11-28T07:41:58.303Z,100057.47
2022-11-28T07:43:31.579Z,100052.25
2022-11-28T07:45:05.583Z,100048.78
2022-11-28T07:46:40.136Z,100056.63
2022-11-28T07:48:13.494Z,100055.75
2022-11-28T07:49:48.240Z,100055.72
2022-11-28T07:51:23.748Z,100060.06
2022-11-28T07:53:00.692Z,100060.88
2022-11-28T07:54:36.179Z,100059.13
2022-11-28T07:56:14.076Z,100062.56
2022-11-28T07:57:47.458Z,100052.94
2022-11-28T07:59:20.733Z,100063.38
2022-11-28T08:00:54.079Z,100066.88
2022-11-28T08:02:28.808Z,100061.59
2022-11-28T08:04:03.364Z,100069.44
2022-11-28T08:05:37.899Z,100058.06
2022-11-28T08:07:13.992Z,100065.06
2022-11-28T08:08:48.643Z,100061.56
2022-11-28T08:10:22.127Z,100064.22
2022-11-28T08:11:55.301Z,100057.22
2022-11-28T08:13:29.464Z,100057.28
2022-11-28T08:15:02.834Z,100065.16
2022-11-28T08:16:37.041Z,100064.25
2022-11-28T08:18:10.556Z,100067.78
2022-11-28T08:19:43.782Z,100060.84
2022-11-28T08:21:21.066Z,100067.00
2022-11-28T08:22:54.392Z,100064.38
2022-11-28T08:24:27.631Z,100066.13
2022-11-28T08:26:01.903Z,100071.34
2022-11-28T08:27:35.402Z,100064.38
2022-11-28T08:29:08.722Z,100068.72
2022-11-28T08:30:41.944Z,100059.09
2022-11-28T08:32:15.196Z,100057.31
2022-11-28T08:33:50.314Z,100060.81
2022-11-28T08:35:23.748Z,100054.59
2022-11-28T08:36:58.515Z,100063.34
2022-11-28T08:38:31.947Z,100041.50
2022-11-28T08:40:05.854Z,100055.44
2022-11-28T08:41:39.966Z,100045.91
2022-11-28T08:43:13.315Z,100057.34
2022-11-28T08:44:46.951Z,100044.31
2022-11-28T08:46:22.125Z,100039.06
2022-11-28T08:47:55.699Z,100036.41
2022-11-28T08:49:28.846Z,100039.88
2022-11-28T08:51:02.038Z,100035.50
2022-11-28T08:52:36.815Z,100032.88
2022-11-28T08:54:10.117Z,100029.31
2022-11-28T08:55:44.469Z,100029.25
2022-11-28T08:57:17.954Z,100031.78
2022-11-28T08:58:51.382Z,100029.13
2022-11-28T09:00:24.976Z,100027.38
2022-11-28T09:01:58.428Z,100018.66
2022-11-28T09:03:31.801Z,100017.75
2022-11-28T09:05:05.561Z,100009.78
2022-11-28T09:06:40.101Z,100002.78
2022-11-28T09:08:14.952Z,100011.47
2022-11-28T09:09:48.514Z,100010.53
2022-11-28T09:11:24.017Z,100004.44
2022-11-28T09:12:57.327Z,100002.59
2022-11-28T09:14:30.594Z,100000.94
2022-11-28T09:16:04.648Z,99993.16
2022-11-28T09:17:37.921Z,99992.28
2022-11-28T09:19:11.631Z,99994.13
2022-11-28T09:20:45.085Z,99987.16
2022-11-28T09:22:18.450Z,99985.41
2022-11-28T09:23:57.102Z,99990.56
2022-11-28T09:25:30.893Z,99980.06
2022-11-28T09:27:04.121Z,99970.44
2022-11-28T09:28:37.421Z,99953.91
2022-11-28T09:30:11.474Z,99970.53
2022-11-28T09:31:47.596Z,99963.59
2022-11-28T09:33:21.287Z,99972.44
2022-11-28T09:34:54.824Z,99959.34
2022-11-28T09:36:28.817Z,99962.78
2022-11-28T09:38:02.075Z,99968.03
2022-11-28T09:39:57.090Z,99959.22
2022-11-28T09:41:51.953Z,99962.72
2022-11-28T09:43:32.137Z,99953.03
2022-11-28T09:45:12.250Z,99954.69
2022-11-28T09:46:47.553Z,99953.00
2022-11-28T09:48:27.886Z,99943.38
2022-11-28T09:50:04.548Z,99937.25
2022-11-28T09:51:48.889Z,99947.78
2022-11-28T09:53:25.709Z,99931.19
2022-11-28T09:55:11.171Z,99950.38
2022-11-28T09:56:45.675Z,99948.63
2022-11-28T09:58:28.223Z,99948.56
2022-11-28T10:00:02.519Z,99938.22
2022-11-28T10:01:55.371Z,99940.78
2022-11-28T10:03:38.118Z,99938.19
2022-11-28T10:05:21.398Z,99943.41
2022-11-28T10:07:03.167Z,99938.94
2022-11-28T10:08:44.059Z,99925.00
2022-11-28T10:10:28.348Z,99932.91
2022-11-28T10:12:14.327Z,99932.94
2022-11-28T10:14:07.754Z,99937.28
2022-11-28T10:15:50.010Z,99931.09
2022-11-28T10:17:35.629Z,99915.31
2022-11-28T10:19:25.710Z,99927.50
2022-11-28T10:21:19.787Z,99928.44
2022-11-28T10:22:57.420Z,99931.81
2022-11-28T10:24:37.422Z,99925.59
2022-11-28T10:26:19.372Z,99925.66
2022-11-28T10:27:53.287Z,99913.47
2022-11-28T10:29:30.747Z,99923.09
2022-11-28T10:31:12.404Z,99924.06
2022-11-28T10:32:52.693Z,99918.84
2022-11-28T10:34:31.633Z,99913.56
2022-11-28T10:36:05.912Z,99921.44
2022-11-28T10:37:40.404Z,99923.31
2022-11-28T10:39:15.123Z,99918.94
2022-11-28T10:40:53.681Z,99930.34
2022-11-28T10:42:35.779Z,99934.75
2022-11-28T10:44:21.456Z,99934.81
2022-11-28T10:46:05.105Z,99927.03
2022-11-28T10:47:51.519Z,99915.78
2022-11-28T10:49:41.491Z,99921.94
2022-11-28T10:51:30.438Z,99919.34
2022-11-28T10:53:13.449Z,99910.66
2022-11-28T10:55:04.531Z,99917.75
2022-11-28T10:56:48.913Z,99911.69
2022-11-28T10:58:26.834Z,99917.75
2022-11-28T11:00:10.751Z,99909.94
2022-11-28T11:01:48.838Z,99916.06
2022-11-28T11:03:28.997Z,99916.06
2022-11-28T11:05:02.321Z,99912.59
2022-11-28T11:06:41.688Z,99902.09
2022-11-28T11:08:20.953Z,99909.88
2022-11-28T11:09:54.624Z,99899.41
2022-11-28T11:11:30.840Z,99903.72
2022-11-28T11:13:15.755Z,99894.03
2022-11-28T11:14:50.507Z,99901.00
2022-11-28T11:16:24.354Z,99899.22
2022-11-28T11:17:58.688Z,99912.28
2022-11-28T11:19:34.567Z,99900.94
2022-11-28T11:21:10.593Z,99902.69
2022-11-28T11:22:56.005Z,99871.34
2022-11-28T11:24:29.542Z,99908.81
2022-11-28T11:26:03.453Z,99904.50
2022-11-28T11:27:38.392Z,99899.28
2022-11-28T11:29:22.929Z,99905.41
2022-11-28T11:31:02.441Z,99901.91
2022-11-28T11:32:36.055Z,99896.69
2022-11-28T11:34:17.921Z,99898.47
2022-11-28T11:35:51.441Z,99893.22
2022-11-28T11:37:33.774Z,99893.22
2022-11-28T11:39:18.106Z,99893.22
2022-11-28T11:40:52.810Z,99884.44
2022-11-28T11:42:27.740Z,99885.34
2022-11-28T11:44:40.905Z,99886.28
2022-11-28T11:46:17.120Z,99888.91
2022-11-28T11:47:50.464Z,99888.06
2022-11-28T11:49:30.437Z,99899.41
2022-11-28T11:51:03.684Z,99901.16
2022-11-28T11:52:37.121Z,99899.38
2022-11-28T11:54:18.697Z,99901.94
2022-11-28T11:55:55.514Z,99906.31
2022-11-28T11:57:34.630Z,99907.16
2022-11-28T11:59:16.534Z,99904.50
2022-11-28T12:00:49.824Z,99901.00
2022-11-28T12:02:29.156Z,99906.25
2022-11-28T12:04:23.625Z,99894.91
2022-11-28T12:06:14.301Z,99896.63
2022-11-28T12:07:56.544Z,99889.59
2022-11-28T12:09:35.441Z,99893.06
2022-11-28T12:11:16.136Z,99892.97
2022-11-28T12:12:49.365Z,99879.06
2022-11-28T12:14:28.897Z,99885.97
2022-11-28T12:16:13.868Z,99885.06
2022-11-28T12:18:10.761Z,99891.19
2022-11-28T12:19:58.460Z,99892.03
2022-11-28T12:21:41.865Z,99886.81
2022-11-28T12:23:30.587Z,99887.72
2022-11-28T12:25:14.129Z,99879.03
2022-11-28T12:26:50.700Z,99892.03
2022-11-28T12:28:39.453Z,99893.75
2022-11-28T12:30:43.373Z,99886.78
2022-11-28T12:32:34.951Z,99878.91
2022-11-28T12:34:21.025Z,99879.00
2022-11-28T12:36:07.586Z,99878.16
2022-11-28T12:39:56.032Z,99896.47
2022-11-28T12:42:06.319Z,99901.72
2022-11-28T12:43:52.536Z,99893.91
2022-11-28T12:45:36.807Z,99891.28
2022-11-28T12:47:19.535Z,99886.00
2022-11-28T12:49:09.155Z,99885.09
2022-11-28T12:50:48.265Z,99892.91
2022-11-28T12:52:30.264Z,99883.25
2022-11-28T12:54:21.809Z,99877.16
2022-11-28T12:56:05.179Z,99884.13
2022-11-28T12:58:13.636Z,99889.41
2022-11-28T13:00:01.064Z,99892.97
2022-11-28T13:02:00.834Z,99880.69
2022-11-28T13:03:46.827Z,99883.34
2022-11-28T13:05:32.665Z,99880.78
2022-11-28T13:07:20.397Z,99896.63
2022-11-28T13:09:14.420Z,99895.81
2022-11-28T13:10:54.468Z,99894.13
2022-11-28T13:12:43.362Z,99898.56
2022-11-28T13:14:26.349Z,99898.56
2022-11-28T13:16:14.673Z,99911.69
2022-11-28T13:17:56.295Z,99921.22
2022-11-28T13:19:44.780Z,99900.28
2022-11-28T13:21:30.898Z,99893.28
2022-11-28T13:23:18.771Z,99901.94
2022-11-28T13:25:03.663Z,99907.13
2022-11-28T13:26:46.438Z,99903.69
2022-11-28T13:28:27.027Z,99907.13
2022-11-28T13:30:15.295Z,99904.50
2022-11-28T13:32:00.332Z,99900.19
2022-11-28T13:33:48.837Z,99908.88
2022-11-28T13:35:22.766Z,99908.88
2022-11-28T13:39:22.761Z,99908.97
2022-11-28T13:41:18.144Z,99922.97
2022-11-28T13:43:13.971Z,99931.75
2022-11-28T13:44:57.591Z,99922.09
2022-11-28T13:46:42.334Z,99915.94
2022-11-28T13:51:06.287Z,99910.78
2022-11-28T13:52:43.685Z,99922.13
2022-11-28T13:54:46.424Z,99909.00
2022-11-28T13:56:27.106Z,99911.63
2022-11-28T13:58:10.985Z,99916.91
2022-11-28T13:59:50.809Z,99913.41
2022-11-28T14:01:27.755Z,99922.09
2022-11-28T14:03:01.567Z,99927.34
2022-11-28T14:04:35.108Z,99912.56
2022-11-28T14:06:10.248Z,99913.41
2022-11-28T14:07:48.520Z,99903.78
2022-11-28T14:09:36.479Z,99912.53
2022-11-28T14:11:54.908Z,99923.00
2022-11-28T14:13:54.560Z,99928.25
2022-11-28T14:15:33.329Z,99922.19
2022-11-28T14:17:26.364Z,99913.41
2022-11-28T14:19:19.011Z,99918.66
2022-11-28T14:20:58.872Z,99917.81
2022-11-28T14:22:47.798Z,99910.81
2022-11-28T14:24:33.270Z,99907.34
2022-11-28T14:26:15.955Z,99910.88
2022-11-28T14:27:59.720Z,99909.16
2022-11-28T14:29:38.815Z,99902.13
2022-11-28T14:31:26.747Z,99912.69
2022-11-28T14:33:05.162Z,99913.59
2022-11-28T14:34:42.488Z,99912.72
2022-11-28T14:36:36.084Z,99893.63
2022-11-28T14:38:43.089Z,99916.31
2022-11-28T14:41:05.681Z,99925.00
2022-11-28T14:45:06.555Z,99923.19
2022-11-28T14:47:07.854Z,99925.00
2022-11-28T14:48:42.558Z,99936.38
2022-11-28T14:50:54.759Z,99926.78
2022-11-28T14:52:40.306Z,99926.81
2022-11-28T14:54:23.207Z,99912.84
2022-11-28T14:56:11.628Z,99915.44
2022-11-28T14:57:59.472Z,99933.78
2022-11-28T14:59:35.979Z,99929.44
2022-11-28T15:01:17.550Z,99912.00
2022-11-28T15:03:10.518Z,99928.56
2022-11-28T15:05:04.431Z,99927.72
2022-11-28T15:06:41.103Z,99926.81
2022-11-28T15:08:34.094Z,99928.53
2022-11-28T15:10:12.569Z,99923.31
2022-11-28T15:12:08.365Z,99921.56
2022-11-28T15:14:05.960Z,99921.56
2022-11-28T15:15:48.400Z,99924.19
2022-11-28T15:17:30.830Z,99924.19
2022-11-28T15:19:15.923Z,99935.53
2022-11-28T15:20:53.950Z,99931.16
2022-11-28T15:22:31.902Z,99921.56
2022-11-28T15:24:17.094Z,99913.72
2022-11-28T15:25:55.114Z,99920.66
2022-11-28T15:27:31.610Z,99926.78
2022-11-28T15:29:20.987Z,99920.66
2022-11-28T15:30:55.929Z,99925.91
2022-11-28T15:32:32.631Z,99921.56
2022-11-28T15:34:11.124Z,99925.91
2022-11-28T15:36:00.715Z,99924.19
2022-11-28T15:37:36.439Z,99935.50
2022-11-28T15:39:26.179Z,99926.78
2022-11-28T15:41:01.614Z,99932.06
2022-11-28T15:42:38.020Z,99933.78
2022-11-28T15:44:16.647Z,99935.56
2022-11-28T15:45:54.362Z,99932.91
2022-11-28T15:47:30.568Z,99928.53
2022-11-28T15:49:05.305Z,99930.31
2022-11-28T15:50:38.990Z,99930.31
2022-11-28T15:52:18.067Z,99928.56
2022-11-28T15:53:52.178Z,99929.44
2022-11-28T15:55:27.093Z,99932.06
2022-11-28T15:57:01.581Z,99939.03
2022-11-28T15:58:35.046Z,99916.34
2022-11-28T16:00:14.962Z,99932.03
2022-11-28T16:01:48.975Z,99931.16
2022-11-28T16:03:29.189Z,99935.53
2022-11-28T16:05:09.405Z,99930.25
2022-11-28T16:06:45.628Z,99918.94
2022-11-28T16:08:30.508Z,99932.88
2022-11-28T16:10:06.689Z,99928.53
2022-11-28T16:11:40.004Z,99935.53
2022-11-28T16:13:17.793Z,99925.94
2022-11-28T16:14:59.531Z,99925.91
2022-11-28T16:16:38.260Z,99927.66
2022-11-28T16:18:23.019Z,99928.53
2022-11-28T16:19:59.147Z,99925.94
2022-11-28T16:21:37.555Z,99935.56
2022-11-28T16:23:12.712Z,99930.34
2022-11-28T16:24:47.561Z,99930.34
2022-11-28T16:26:31.823Z,99930.34
2022-11-28T16:28:27.838Z,99921.66
2022-11-28T16:30:08.598Z,99926.88
2022-11-28T16:31:47.851Z,99929.50
2022-11-28T16:33:39.517Z,99933.84
2022-11-28T16:35:25.337Z,99937.38
2022-11-28T16:36:59.075Z,99946.06
2022-11-28T16:38:34.666Z,99938.22
2022-11-28T16:40:21.657Z,99933.88
2022-11-28T16:42:07.815Z,99933.88
2022-11-28T16:43:45.132Z,99932.97
2022-11-28T16:45:22.028Z,99939.97
2022-11-28T16:46:59.054Z,99935.59
2022-11-28T16:48:37.423Z,99945.25
2022-11-28T16:50:21.461Z,99930.41
2022-11-28T16:52:34.788Z,99933.94
2022-11-28T16:54:35.255Z,99926.09
2022-11-28T16:56:25.568Z,99922.63
2022-11-28T16:58:07.272Z,99914.81
2022-11-28T16:59:41.431Z,99923.53
2022-11-28T17:01:15.062Z,99930.53
2022-11-28T17:02:52.747Z,99931.38
2022-11-28T17:04:28.218Z,99933.16
2022-11-28T17:06:10.915Z,99930.50
2022-11-28T17:07:44.664Z,99934.84
2022-11-28T17:09:18.720Z,99934.81
2022-11-28T17:10:52.129Z,99938.28
2022-11-28T17:12:28.125Z,99940.06
2022-11-28T17:14:07.456Z,99933.03
2022-11-28T17:15:49.411Z,99954.91
2022-11-28T17:17:26.510Z,99942.75
2022-11-28T17:19:00.356Z,99938.34
2022-11-28T17:20:33.622Z,99938.34
2022-11-28T17:22:11.798Z,99929.56
2022-11-28T17:23:51.614Z,99940.91
2022-11-28T17:25:30.387Z,99926.06
2022-11-28T17:27:08.828Z,99918.19
2022-11-28T17:28:44.527Z,99921.66
2022-11-28T17:30:20.292Z,99920.84
2022-11-28T17:31:59.153Z,99906.00
2022-11-28T17:33:33.823Z,99924.28
2022-11-28T17:35:14.730Z,99927.78
2022-11-28T17:36:53.384Z,99920.81
2022-11-28T17:38:30.789Z,99927.78
2022-11-28T17:40:23.432Z,99927.78
2022-11-28T17:41:59.855Z,99918.22
2022-11-28T17:43:39.281Z,99895.59
2022-11-28T17:45:16.089Z,99906.00
2022-11-28T17:46:50.283Z,99926.06
2022-11-28T17:48:24.503Z,99930.41
2022-11-28T17:49:57.941Z,99923.44
2022-11-28T17:51:32.707Z,99919.94
2022-11-28T17:53:06.127Z,99907.72
2022-11-28T17:54:41.330Z,99906.88
2022-11-28T17:56:17.022Z,99916.47
2022-11-28T17:58:01.036Z,99914.75
2022-11-28T17:59:36.191Z,99912.13
2022-11-28T18:01:12.682Z,99906.06
2022-11-28T18:02:46.121Z,99926.09
2022-11-28T18:04:20.366Z,99921.72
2022-11-28T18:05:59.976Z,99912.97
2022-11-28T18:07:38.228Z,99912.97
2022-11-28T18:09:14.194Z,99911.19
2022-11-28T18:10:49.908Z,99898.97
2022-11-28T18:12:24.070Z,99900.69
2022-11-28T18:13:59.840Z,99890.22
2022-11-28T18:15:35.954Z,99899.81
2022-11-28T18:17:12.305Z,99898.06
2022-11-28T18:18:46.116Z,99900.69
2022-11-28T18:20:20.307Z,99901.59
2022-11-28T18:21:54.562Z,99893.81
2022-11-28T18:23:28.948Z,99895.53
2022-11-28T18:25:03.744Z,99889.53
2022-11-28T18:26:39.159Z,99903.47
2022-11-28T18:28:19.182Z,99900.88
2022-11-28T18:29:54.744Z,99897.44
2022-11-28T18:31:31.186Z,99886.06
2022-11-28T18:33:05.909Z,99900.00
2022-11-28T18:34:39.284Z,99898.28
2022-11-28T18:36:14.576Z,99904.34
2022-11-28T18:37:48.637Z,99909.59
2022-11-28T18:39:22.080Z,99888.69
2022-11-28T18:40:56.259Z,99902.63
2022-11-28T18:42:31.770Z,99894.81
2022-11-28T18:44:06.252Z,99891.31
2022-11-28T18:45:39.699Z,99900.06
2022-11-28T18:47:14.397Z,99906.13
2022-11-28T18:48:48.985Z,99893.94
2022-11-28T18:50:23.164Z,99894.78
2022-11-28T18:51:57.123Z,99893.03
2022-11-28T18:53:30.615Z,99906.16
2022-11-28T18:55:04.675Z,99873.91
2022-11-28T18:56:39.601Z,99888.72
2022-11-28T18:58:15.214Z,99862.59
2022-11-28T18:59:54.546Z,99879.16
2022-11-28T19:01:31.133Z,99887.00
2022-11-28T19:03:06.002Z,99885.28
2022-11-28T19:04:40.493Z,99882.66
2022-11-28T19:06:21.149Z,99892.25
2022-11-28T19:07:58.127Z,99886.16
2022-11-28T19:09:34.336Z,99880.03
2022-11-28T19:11:10.957Z,99886.16
2022-11-28T19:12:44.553Z,99881.78